createdAt,value
2019-03-31T00:01:07.635Z,81.62
2019-03-31T00:03:27.965Z,81.43
2019-03-31T00:05:57.598Z,81.50
2019-03-31T00:08:27.533Z,82.14
2019-03-31T00:11:00.541Z,82.06
2019-03-31T00:13:31.241Z,82.06
2019-03-31T00:16:04.371Z,81.49
2019-03-31T00:18:33.965Z,81.75
2019-03-31T00:21:03.545Z,82.57
2019-03-31T00:23:33.514Z,81.31
2019-03-31T00:26:03.162Z,80.26
2019-03-31T00:28:32.883Z,80.79
2019-03-31T00:31:02.449Z,81.39
2019-03-31T00:33:33.748Z,81.43
2019-03-31T00:36:03.327Z,81.02
2019-03-31T00:38:33.323Z,81.13
2019-03-31T00:41:03.630Z,81.13
2019-03-31T00:43:33.201Z,81.07
2019-03-31T00:46:02.788Z,81.00
2019-03-31T00:48:32.671Z,80.88
2019-03-31T00:51:02.269Z,80.69
2019-03-31T00:53:31.833Z,80.68
2019-03-31T00:56:01.421Z,80.25
2019-03-31T00:58:31.433Z,79.26
2019-03-31T01:01:18.997Z,79.18
2019-03-31T01:03:48.636Z,79.87
2019-03-31T01:06:19.222Z,79.57
2019-03-31T01:08:48.837Z,79.31
2019-03-31T01:11:24.296Z,79.39
2019-03-31T01:13:54.180Z,80.03
2019-03-31T01:16:24.745Z,80.59
2019-03-31T01:18:54.324Z,80.95
2019-03-31T01:21:23.977Z,80.66
2019-03-31T01:23:53.676Z,80.67
2019-03-31T01:26:23.351Z,80.54
2019-03-31T01:28:53.422Z,80.55
2019-03-31T01:31:23.738Z,80.66
2019-03-31T01:33:53.392Z,80.48
2019-03-31T01:36:23.067Z,80.40
2019-03-31T01:38:52.657Z,79.56
2019-03-31T01:41:22.955Z,78.76
2019-03-31T01:43:52.517Z,79.09
2019-03-31T01:46:24.402Z,79.15
2019-03-31T01:48:53.976Z,79.52
2019-03-31T01:51:23.574Z,80.36
2019-03-31T01:53:53.182Z,79.88
2019-03-31T01:56:23.279Z,79.92
2019-03-31T01:58:53.241Z,80.93
2019-03-31T02:01:22.917Z,81.18
2019-03-31T02:03:52.719Z,80.59
2019-03-31T02:06:22.351Z,80.97
2019-03-31T02:08:51.935Z,81.05
2019-03-31T02:11:21.898Z,80.96
2019-03-31T02:13:51.582Z,81.15
2019-03-31T02:16:21.286Z,81.48
2019-03-31T02:18:51.202Z,81.62
2019-03-31T02:21:21.155Z,80.94
2019-03-31T02:23:50.730Z,81.70
2019-03-31T02:26:20.292Z,81.28
2019-03-31T02:28:49.879Z,81.43
2019-03-31T02:31:21.748Z,82.17
2019-03-31T02:33:51.381Z,81.96
2019-03-31T02:36:20.963Z,82.28
2019-03-31T02:38:50.540Z,82.92
2019-03-31T02:41:20.460Z,82.90
2019-03-31T02:43:50.349Z,82.70
2019-03-31T02:46:19.954Z,83.07
2019-03-31T02:48:49.987Z,83.43
2019-03-31T02:51:20.281Z,83.70
2019-03-31T02:53:49.879Z,83.99
2019-03-31T02:56:19.526Z,84.08
2019-03-31T02:58:50.059Z,84.35
2019-03-31T03:01:21.736Z,84.12
2019-03-31T03:03:52.540Z,84.56
2019-03-31T03:06:23.127Z,84.55
2019-03-31T03:08:57.005Z,84.69
2019-03-31T03:11:28.194Z,84.86
2019-03-31T03:13:58.255Z,85.28
2019-03-31T03:16:28.121Z,86.33
2019-03-31T03:18:57.905Z,86.06
2019-03-31T03:21:27.539Z,85.84
2019-03-31T03:23:57.087Z,86.10
2019-03-31T03:26:26.740Z,86.16
2019-03-31T03:28:56.729Z,86.27
2019-03-31T03:31:26.337Z,86.36
2019-03-31T03:33:55.954Z,86.15
2019-03-31T03:36:25.505Z,86.31
2019-03-31T03:38:55.495Z,86.49
2019-03-31T03:41:25.773Z,86.50
2019-03-31T03:44:01.743Z,87.04
2019-03-31T03:46:30.397Z,86.94
2019-03-31T03:49:00.504Z,87.17
2019-03-31T03:51:30.273Z,87.18
2019-03-31T03:53:59.917Z,87.16
2019-03-31T03:56:29.579Z,87.07
2019-03-31T03:58:59.499Z,87.12
2019-03-31T04:01:30.810Z,87.12
2019-03-31T04:04:00.416Z,87.06
2019-03-31T04:06:30.057Z,86.77
2019-03-31T04:08:59.984Z,87.08
2019-03-31T04:11:30.149Z,87.41
2019-03-31T04:13:59.879Z,87.70
2019-03-31T04:16:30.560Z,87.62
2019-03-31T04:19:00.262Z,87.04
2019-03-31T04:21:30.010Z,87.27
2019-03-31T04:24:00.041Z,86.76
2019-03-31T04:26:29.973Z,86.69
2019-03-31T04:28:59.558Z,86.34
2019-03-31T04:31:29.466Z,85.99
2019-03-31T04:33:59.139Z,85.84
2019-03-31T04:36:28.728Z,85.48
2019-03-31T04:39:00.446Z,84.79
2019-03-31T04:41:30.328Z,85.19
2019-03-31T04:44:00.233Z,85.50
2019-03-31T04:46:29.828Z,85.30
2019-03-31T04:48:59.890Z,85.90
2019-03-31T04:51:29.518Z,85.98
2019-03-31T04:53:59.522Z,85.42
2019-03-31T04:56:29.543Z,85.40
2019-03-31T04:58:59.724Z,85.70
2019-03-31T05:01:29.668Z,84.94
2019-03-31T05:04:04.952Z,84.99
2019-03-31T05:06:30.717Z,84.59
2019-03-31T05:09:00.352Z,84.62
2019-03-31T05:11:29.915Z,84.61
2019-03-31T05:13:59.649Z,84.76
2019-03-31T05:16:29.258Z,84.86
2019-03-31T05:18:58.919Z,84.82
2019-03-31T05:21:29.076Z,84.85
2019-03-31T05:23:58.849Z,84.34
2019-03-31T05:26:28.420Z,84.31
2019-03-31T05:29:01.531Z,84.72
2019-03-31T05:31:31.991Z,84.48
2019-03-31T05:34:01.960Z,84.39
2019-03-31T05:36:31.799Z,84.69
2019-03-31T05:39:02.184Z,84.53
2019-03-31T05:41:32.205Z,84.39
2019-03-31T05:44:05.917Z,84.68
2019-03-31T05:46:34.330Z,84.46
2019-03-31T05:49:04.672Z,84.79
2019-03-31T05:51:34.518Z,84.22
2019-03-31T05:54:04.942Z,84.55
2019-03-31T05:56:34.664Z,83.55
2019-03-31T05:59:04.337Z,83.08
2019-03-31T06:01:33.954Z,83.28
2019-03-31T06:04:04.224Z,83.04
2019-03-31T06:06:36.897Z,83.28
2019-03-31T06:09:06.771Z,82.91
2019-03-31T06:11:36.378Z,82.56
2019-03-31T06:14:06.033Z,83.14
2019-03-31T06:16:36.149Z,83.04
2019-03-31T06:19:05.766Z,83.03
2019-03-31T06:21:35.907Z,82.41
2019-03-31T06:24:05.898Z,82.78
2019-03-31T06:26:35.507Z,81.73
2019-03-31T06:29:05.442Z,82.54
2019-03-31T06:31:35.426Z,82.40
2019-03-31T06:34:05.250Z,82.51
2019-03-31T06:36:36.052Z,82.62
2019-03-31T06:39:09.657Z,82.55
2019-03-31T06:41:39.623Z,82.56
2019-03-31T06:44:10.493Z,82.30
2019-03-31T06:46:40.476Z,81.97
2019-03-31T06:49:10.736Z,82.34
2019-03-31T06:51:40.560Z,81.97
2019-03-31T06:54:10.694Z,82.03
2019-03-31T06:56:40.293Z,81.79
2019-03-31T06:59:09.882Z,81.85
2019-03-31T07:01:39.834Z,82.17
2019-03-31T07:04:09.428Z,81.90
2019-03-31T07:06:39.362Z,81.43
2019-03-31T07:09:09.315Z,80.91
2019-03-31T07:11:39.270Z,80.79
2019-03-31T07:14:09.251Z,80.16
2019-03-31T07:16:38.837Z,80.27
2019-03-31T07:19:08.474Z,79.95
2019-03-31T07:21:38.120Z,79.83
2019-03-31T07:24:07.713Z,80.03
2019-03-31T07:26:37.412Z,80.42
2019-03-31T07:29:07.103Z,79.86
2019-03-31T07:31:37.735Z,79.40
2019-03-31T07:34:08.161Z,79.16
2019-03-31T07:36:37.823Z,80.11
2019-03-31T07:39:07.943Z,79.40
2019-03-31T07:41:37.991Z,79.45
2019-03-31T07:44:07.779Z,79.59
2019-03-31T07:46:37.438Z,78.76
2019-03-31T07:49:07.182Z,79.72
2019-03-31T07:51:37.608Z,78.99
2019-03-31T07:54:07.310Z,79.19
2019-03-31T07:56:37.064Z,79.01
2019-03-31T07:59:06.707Z,78.56
2019-03-31T08:01:36.299Z,77.65
2019-03-31T08:04:05.920Z,77.44
2019-03-31T08:06:35.575Z,77.53
2019-03-31T08:09:07.020Z,76.69
2019-03-31T08:11:36.898Z,76.77
2019-03-31T08:14:06.874Z,76.22
2019-03-31T08:16:36.503Z,75.91
2019-03-31T08:19:06.151Z,75.42
2019-03-31T08:21:36.427Z,75.19
2019-03-31T08:24:06.846Z,73.94
2019-03-31T08:26:36.500Z,73.09
2019-03-31T08:29:06.241Z,73.45
2019-03-31T08:31:36.216Z,73.47
2019-03-31T08:34:05.926Z,71.81
2019-03-31T08:36:36.015Z,71.81
2019-03-31T08:39:08.633Z,72.47
2019-03-31T08:41:38.291Z,72.58
2019-03-31T08:44:08.334Z,71.10
2019-03-31T08:46:38.539Z,70.03
2019-03-31T08:49:08.490Z,70.14
2019-03-31T08:51:38.164Z,68.36
2019-03-31T08:54:07.724Z,68.72
2019-03-31T08:56:37.342Z,67.55
2019-03-31T08:59:07.012Z,67.94
2019-03-31T09:01:37.053Z,64.62
2019-03-31T09:04:07.043Z,63.23
2019-03-31T09:06:36.917Z,58.89
2019-03-31T09:09:08.764Z,57.45
2019-03-31T09:11:38.311Z,55.09
2019-03-31T09:14:08.267Z,53.02
2019-03-31T09:16:38.055Z,52.78
2019-03-31T09:19:07.704Z,53.03
2019-03-31T09:21:37.645Z,52.52
2019-03-31T09:24:07.679Z,55.95
2019-03-31T09:26:37.307Z,57.14
2019-03-31T09:29:07.434Z,59.23
2019-03-31T09:31:37.030Z,61.13
2019-03-31T09:34:07.070Z,61.92
2019-03-31T09:36:37.102Z,61.46
2019-03-31T09:39:07.393Z,58.93
2019-03-31T09:41:36.978Z,58.08
2019-03-31T09:44:07.092Z,59.95
2019-03-31T09:46:36.679Z,61.89
2019-03-31T09:49:06.332Z,64.15
2019-03-31T09:51:35.934Z,64.67
2019-03-31T09:54:05.904Z,64.69
2019-03-31T09:56:35.474Z,65.16
2019-03-31T09:59:05.127Z,64.90
2019-03-31T10:01:35.382Z,65.01
2019-03-31T10:04:05.262Z,64.24
2019-03-31T10:06:35.232Z,63.79
2019-03-31T10:09:06.651Z,61.92
2019-03-31T10:11:36.391Z,60.10
2019-03-31T10:14:06.009Z,59.73
2019-03-31T10:16:36.127Z,58.77
2019-03-31T10:19:06.099Z,56.02
2019-03-31T10:21:35.710Z,55.01
2019-03-31T10:24:06.501Z,51.75
2019-03-31T10:26:36.110Z,52.56
2019-03-31T10:29:05.736Z,52.87
2019-03-31T10:31:35.505Z,52.71
2019-03-31T10:34:05.138Z,55.93
2019-03-31T10:36:44.344Z,57.38
2019-03-31T10:39:09.099Z,59.68
2019-03-31T10:41:39.090Z,60.11
2019-03-31T10:44:08.810Z,61.34
2019-03-31T10:46:38.749Z,59.26
2019-03-31T10:49:08.465Z,56.00
2019-03-31T10:51:38.170Z,53.39
2019-03-31T10:54:07.940Z,52.18
2019-03-31T10:56:39.110Z,53.50
2019-03-31T10:59:08.700Z,54.01
2019-03-31T11:01:38.328Z,54.82
2019-03-31T11:04:08.260Z,56.74
2019-03-31T11:06:37.880Z,56.25
2019-03-31T11:09:08.650Z,56.73
2019-03-31T11:11:39.844Z,58.33
2019-03-31T11:14:11.619Z,58.80
2019-03-31T11:16:41.438Z,59.86
2019-03-31T11:19:11.801Z,60.61
2019-03-31T11:21:51.623Z,61.27
2019-03-31T11:24:21.315Z,61.81
2019-03-31T11:26:50.923Z,61.57
2019-03-31T11:29:20.834Z,62.28
2019-03-31T11:31:50.421Z,62.80
2019-03-31T11:34:20.081Z,62.85
2019-03-31T11:36:49.659Z,63.54
2019-03-31T11:39:19.677Z,63.69
2019-03-31T11:41:49.285Z,62.91
2019-03-31T11:44:18.989Z,62.84
2019-03-31T11:46:48.698Z,61.13
2019-03-31T11:49:18.719Z,59.94
2019-03-31T11:51:48.402Z,58.71
2019-03-31T11:54:18.149Z,55.69
2019-03-31T11:56:49.045Z,54.65
2019-03-31T11:59:20.900Z,53.42
2019-03-31T12:01:50.165Z,53.10
2019-03-31T12:04:19.838Z,52.35
2019-03-31T12:06:52.267Z,53.83
2019-03-31T12:09:21.899Z,52.23
2019-03-31T12:11:52.550Z,51.22
2019-03-31T12:14:22.424Z,50.18
2019-03-31T12:16:52.390Z,50.39
2019-03-31T12:19:22.723Z,49.63
2019-03-31T12:21:52.335Z,50.72
2019-03-31T12:24:21.943Z,49.19
2019-03-31T12:26:53.803Z,49.03
2019-03-31T12:29:23.385Z,52.01
2019-03-31T12:31:53.208Z,52.05
2019-03-31T12:34:22.847Z,52.88
2019-03-31T12:36:52.505Z,52.21
2019-03-31T12:39:22.106Z,49.68
2019-03-31T12:41:51.721Z,48.98
2019-03-31T12:44:21.333Z,48.56
2019-03-31T12:46:51.908Z,49.05
2019-03-31T12:49:21.499Z,48.69
2019-03-31T12:51:55.213Z,50.01
2019-03-31T12:54:25.433Z,48.76
2019-03-31T12:56:55.109Z,49.84
2019-03-31T12:59:27.249Z,48.30
2019-03-31T13:01:56.252Z,46.95
2019-03-31T13:04:26.503Z,45.00
2019-03-31T13:06:56.486Z,46.62
2019-03-31T13:09:26.097Z,47.14
2019-03-31T13:11:55.679Z,45.66
2019-03-31T13:14:25.320Z,45.35
2019-03-31T13:16:55.087Z,46.64
2019-03-31T13:19:24.879Z,46.67
2019-03-31T13:21:55.307Z,47.38
2019-03-31T13:24:25.496Z,48.68
2019-03-31T13:26:55.139Z,46.87
2019-03-31T13:29:24.877Z,46.96
2019-03-31T13:31:54.938Z,45.95
2019-03-31T13:34:25.257Z,46.09
2019-03-31T13:36:54.867Z,46.45
2019-03-31T13:39:24.497Z,45.16
2019-03-31T13:41:54.407Z,44.83
2019-03-31T13:44:24.038Z,45.90
2019-03-31T13:46:54.061Z,46.42
2019-03-31T13:49:23.699Z,46.09
2019-03-31T13:51:53.319Z,46.88
2019-03-31T13:54:23.154Z,46.72
2019-03-31T13:56:53.665Z,46.61
2019-03-31T13:59:23.738Z,48.39
2019-03-31T14:01:55.111Z,48.17
2019-03-31T14:04:24.910Z,47.18
2019-03-31T14:06:54.900Z,47.94
2019-03-31T14:09:26.309Z,48.73
2019-03-31T14:11:56.232Z,48.41
2019-03-31T14:14:26.739Z,49.80
2019-03-31T14:16:56.769Z,48.84
2019-03-31T14:19:26.783Z,49.45
2019-03-31T14:21:56.320Z,49.30
2019-03-31T14:24:27.035Z,48.90
2019-03-31T14:26:56.986Z,49.25
2019-03-31T14:29:27.014Z,48.51
2019-03-31T14:31:56.945Z,49.74
2019-03-31T14:34:27.034Z,49.34
2019-03-31T14:36:57.031Z,51.13
2019-03-31T14:39:29.163Z,50.69
2019-03-31T14:41:58.794Z,49.82
2019-03-31T14:44:28.853Z,51.04
2019-03-31T14:46:58.847Z,51.41
2019-03-31T14:49:28.463Z,50.55
2019-03-31T14:52:01.191Z,52.14
2019-03-31T14:54:29.718Z,48.21
2019-03-31T14:56:59.901Z,50.30
2019-03-31T14:59:29.800Z,50.94
2019-03-31T15:01:59.506Z,50.93
2019-03-31T15:04:29.440Z,51.48
2019-03-31T15:06:59.609Z,52.15
2019-03-31T15:09:29.608Z,52.04
2019-03-31T15:11:59.197Z,52.65
2019-03-31T15:14:28.826Z,51.77
2019-03-31T15:16:58.472Z,53.67
2019-03-31T15:19:28.138Z,53.86
2019-03-31T15:21:57.747Z,53.01
2019-03-31T15:24:27.354Z,51.98
2019-03-31T15:26:57.102Z,52.59
2019-03-31T15:29:27.021Z,52.41
2019-03-31T15:31:56.771Z,53.49
2019-03-31T15:34:26.929Z,51.89
2019-03-31T15:36:56.741Z,53.51
2019-03-31T15:39:26.448Z,54.36
2019-03-31T15:41:56.169Z,53.26
2019-03-31T15:44:25.819Z,52.75
2019-03-31T15:46:55.687Z,53.77
2019-03-31T15:49:25.683Z,58.54
2019-03-31T15:51:55.480Z,53.72
2019-03-31T15:54:25.118Z,54.61
2019-03-31T15:56:54.880Z,54.05
2019-03-31T15:59:24.873Z,56.10
2019-03-31T16:01:54.521Z,55.42
2019-03-31T16:04:24.159Z,54.63
2019-03-31T16:06:53.834Z,56.82
2019-03-31T16:09:24.122Z,56.09
2019-03-31T16:11:54.224Z,55.79
2019-03-31T16:14:24.846Z,55.23
2019-03-31T16:16:54.009Z,55.68
2019-03-31T16:19:23.205Z,56.32
2019-03-31T16:21:52.440Z,56.43
2019-03-31T16:24:34.709Z,55.39
2019-03-31T16:27:03.885Z,55.69
2019-03-31T16:29:33.032Z,55.87
2019-03-31T16:32:04.613Z,55.27
2019-03-31T16:34:34.303Z,55.12
2019-03-31T16:37:03.405Z,55.20
2019-03-31T16:39:37.805Z,56.49
2019-03-31T16:42:04.926Z,54.97
2019-03-31T16:44:34.029Z,56.10
2019-03-31T16:47:03.081Z,56.37
2019-03-31T16:49:32.345Z,56.70
2019-03-31T16:52:02.034Z,54.95
2019-03-31T16:54:31.085Z,56.31
2019-03-31T16:57:00.167Z,55.85
2019-03-31T16:59:29.214Z,58.79
2019-03-31T17:01:58.255Z,56.92
2019-03-31T17:04:27.614Z,57.00
2019-03-31T17:06:56.697Z,57.08
2019-03-31T17:09:26.070Z,57.33
2019-03-31T17:11:55.559Z,58.87
2019-03-31T17:14:24.870Z,56.99
2019-03-31T17:16:54.299Z,59.80
2019-03-31T17:19:23.694Z,58.75
2019-03-31T17:21:53.039Z,61.33
2019-03-31T17:24:22.131Z,59.31
2019-03-31T17:26:51.181Z,60.12
2019-03-31T17:29:20.279Z,60.01
2019-03-31T17:31:49.398Z,59.35
2019-03-31T17:34:18.805Z,59.88
2019-03-31T17:36:47.890Z,59.12
2019-03-31T17:39:16.959Z,61.37
2019-03-31T17:41:48.065Z,59.43
2019-03-31T17:44:17.159Z,59.77
2019-03-31T17:46:46.399Z,60.16
2019-03-31T17:49:15.783Z,61.36
2019-03-31T17:51:45.219Z,61.62
2019-03-31T17:54:14.626Z,62.16
2019-03-31T17:56:43.700Z,62.60
2019-03-31T17:59:12.758Z,62.59
2019-03-31T18:01:42.095Z,63.33
2019-03-31T18:04:11.281Z,62.26
2019-03-31T18:06:40.916Z,63.95
2019-03-31T18:09:10.513Z,64.94
2019-03-31T18:11:39.556Z,63.38
2019-03-31T18:14:09.362Z,64.62
2019-03-31T18:16:38.728Z,65.50
2019-03-31T18:19:07.911Z,66.62
2019-03-31T18:21:37.565Z,65.49
2019-03-31T18:24:06.972Z,64.43
2019-03-31T18:26:36.024Z,65.75
2019-03-31T18:29:05.404Z,65.85
2019-03-31T18:31:34.481Z,66.59
2019-03-31T18:34:04.433Z,65.42
2019-03-31T18:36:36.754Z,65.15
2019-03-31T18:39:07.041Z,65.05
2019-03-31T18:41:36.433Z,64.90
2019-03-31T18:44:06.060Z,65.54
2019-03-31T18:46:35.514Z,65.43
2019-03-31T18:49:04.813Z,66.17
2019-03-31T18:51:33.880Z,67.17
2019-03-31T18:54:16.510Z,65.24
2019-03-31T18:57:06.174Z,65.93
2019-03-31T19:00:12.393Z,64.68
2019-03-31T19:02:58.938Z,65.89
2019-03-31T19:05:49.943Z,65.92
2019-03-31T19:08:38.528Z,66.38
2019-03-31T19:11:29.358Z,67.57
2019-03-31T19:14:35.544Z,68.73
2019-03-31T19:17:29.120Z,67.66
2019-03-31T19:20:18.493Z,67.42
2019-03-31T19:23:13.025Z,67.71
2019-03-31T19:26:13.214Z,67.83
2019-03-31T19:29:10.166Z,67.50
2019-03-31T19:31:54.332Z,68.56
2019-03-31T19:34:37.734Z,68.54
2019-03-31T19:37:28.870Z,68.17
2019-03-31T19:40:22.736Z,68.77
2019-03-31T19:43:11.044Z,69.89
2019-03-31T19:45:50.797Z,68.85
2019-03-31T19:48:47.656Z,68.28
2019-03-31T19:51:38.407Z,68.42
2019-03-31T19:54:24.956Z,69.61
2019-03-31T19:57:17.574Z,68.74
2019-03-31T20:00:06.452Z,68.73
2019-03-31T20:02:43.650Z,69.99
2019-03-31T20:05:27.174Z,69.15
2019-03-31T20:08:18.095Z,69.78
2019-03-31T20:11:06.090Z,69.42
2019-03-31T20:14:00.535Z,67.71
2019-03-31T20:17:07.084Z,69.54
2019-03-31T20:20:01.151Z,67.14
2019-03-31T20:22:58.210Z,68.13
2019-03-31T20:25:44.504Z,68.96
2019-03-31T20:28:22.770Z,68.39
2019-03-31T20:30:59.108Z,69.16
2019-03-31T20:33:43.754Z,69.18
2019-03-31T20:36:36.028Z,68.95
2019-03-31T20:39:26.954Z,67.17
2019-03-31T20:42:08.852Z,68.81
2019-03-31T20:44:38.014Z,67.75
2019-03-31T20:47:07.408Z,67.57
2019-03-31T20:49:36.790Z,67.98
2019-03-31T20:52:05.953Z,67.15
2019-03-31T20:54:35.027Z,69.06
2019-03-31T20:57:04.446Z,68.98
2019-03-31T20:59:33.549Z,67.70
2019-03-31T21:02:02.646Z,68.85
2019-03-31T21:04:32.363Z,68.00
2019-03-31T21:07:01.427Z,69.17
2019-03-31T21:09:38.779Z,68.65
2019-03-31T21:12:01.668Z,68.45
2019-03-31T21:14:30.852Z,68.72
2019-03-31T21:16:59.889Z,67.87
2019-03-31T21:19:29.225Z,69.63
2019-03-31T21:21:58.799Z,68.13
2019-03-31T21:24:27.946Z,68.56
2019-03-31T21:26:57.262Z,70.46
2019-03-31T21:29:26.398Z,68.85
2019-03-31T21:31:55.523Z,70.54
2019-03-31T21:34:24.866Z,68.75
2019-03-31T21:36:54.466Z,70.10
2019-03-31T21:39:23.585Z,69.14
2019-03-31T21:41:53.024Z,68.25
2019-03-31T21:44:22.061Z,69.07
2019-03-31T21:46:51.118Z,70.31
2019-03-31T21:49:20.511Z,68.92
2019-03-31T21:51:49.640Z,69.62
2019-03-31T21:54:18.686Z,69.54
2019-03-31T21:56:47.742Z,70.58
2019-03-31T21:59:16.740Z,71.08
2019-03-31T22:01:45.787Z,71.09
2019-03-31T22:04:15.106Z,69.58
2019-03-31T22:06:44.398Z,69.88
2019-03-31T22:09:13.746Z,71.05
2019-03-31T22:11:43.087Z,69.70
2019-03-31T22:14:12.389Z,70.23
2019-03-31T22:16:41.674Z,70.60
2019-03-31T22:19:10.701Z,71.86
2019-03-31T22:21:40.398Z,71.14
2019-03-31T22:24:09.503Z,70.67
2019-03-31T22:26:38.545Z,71.14
2019-03-31T22:29:07.847Z,71.42
2019-03-31T22:31:37.150Z,71.26
2019-03-31T22:34:06.205Z,70.72
2019-03-31T22:36:35.242Z,70.77
2019-03-31T22:39:06.302Z,70.91
2019-03-31T22:41:35.362Z,71.06
2019-03-31T22:44:05.393Z,72.31
2019-03-31T22:46:34.444Z,71.76
2019-03-31T22:49:04.322Z,72.00
2019-03-31T22:51:33.642Z,73.50
2019-03-31T22:54:03.057Z,72.23
2019-03-31T22:56:32.479Z,72.11
2019-03-31T22:59:02.209Z,72.79
2019-03-31T23:01:31.249Z,72.57
2019-03-31T23:04:00.465Z,71.47
2019-03-31T23:06:30.271Z,72.14
2019-03-31T23:08:59.316Z,71.69
2019-03-31T23:11:28.748Z,72.39
2019-03-31T23:13:59.536Z,72.49
2019-03-31T23:16:28.580Z,72.46
2019-03-31T23:18:57.607Z,72.00
2019-03-31T23:21:26.617Z,71.99
2019-03-31T23:23:56.019Z,72.54
2019-03-31T23:26:25.099Z,72.89
2019-03-31T23:28:54.803Z,71.64
2019-03-31T23:31:24.183Z,71.74
2019-03-31T23:33:53.268Z,72.22
2019-03-31T23:36:22.610Z,72.92
2019-03-31T23:38:51.694Z,72.99
2019-03-31T23:41:20.722Z,72.10
2019-03-31T23:43:50.187Z,72.46
2019-03-31T23:46:19.585Z,72.36
2019-03-31T23:48:48.930Z,71.76
2019-03-31T23:51:17.997Z,72.79
2019-03-31T23:53:47.124Z,72.14
2019-03-31T23:56:16.841Z,71.48
2019-03-31T23:58:46.239Z,71.17
